Terminal Aerodrome Forecast
Issued by NWS Jacksonville, FL

Home | Current Version | Previous Version | Text Only | Print | Product List | Glossary On
Versions: 1 2 3 4 5 6 7 8 9 10 11 12 13 14 15 16 17 18 19 20 21 22 23 24 25 26 27 28 29 30 31 32 33
000
FTUS42 KJAX 041050 AAC
TAFGNV
TAF AMD
KGNV 041050Z 0411/0506 17004KT 4SM BR FEW015 SCT200
      TEMPO 0411/0413 1/2SM FG BKN010
     FM041400 19005KT P6SM SCT025
     FM041600 20011KT P6SM SCT250
     FM050000 21004KT P6SM SCT250=

USA.gov is the U.S. government's official web portal to all federal, state and local government web resources and services.